Flight Track Log - Related Links

Times and Time Zones

All times are in EDT time to prevent confusion due to time zone crossing. See the SWA1969 flight status page for this flight to view local times or setup timezone preferences in your user account.

Time Position Orientation Groundspeed Altitude Reporting Facility
EDT Latitude Longitude Course Direction KTS MPH feet Rate Location/Type
Thu 07:50:18 AM 32.8667 -96.8833 320° Northwest 149 171 2,200  Level Dallas TRACON
Thu 07:51:18 AM 32.9000 -96.9167 320° Northwest 183 211 5,100 2,895 Climbing Dallas TRACON
Thu 07:52:12 AM 32.9333 -96.9667 308° West 235 270 7,700 3,481 Climbing Dallas TRACON
Thu 07:54:19 AM 33.0978 -97.0317 342° North 303 349 15,600 3,529 Climbing Fort Center
Thu 07:55:19 AM 33.1961 -97.0536 349° North 341 392 18,700 2,900 Climbing Fort Center
Thu 07:56:19 AM 33.3067 -97.0781 350° North 383 441 21,400 2,900 Climbing Fort Center
Thu 07:57:19 AM 33.4236 -97.1022 350° North 419 482 24,500 2,300 Climbing Fort Center
Thu 07:58:19 AM 33.5447 -97.0994 North 430 495 26,000 750 Climbing Fort Center
Thu 07:59:19 AM 33.6678 -97.0842 North 436 502 26,000 -300 Level Fort Center
Thu 08:00:19 AM 33.7764 -97.0686 North 438 504 25,400 -1,150 Descending Fort Center
Thu 08:01:19 AM 33.9036 -97.0506 North 443 510 23,700 -1,350 Descending Fort Center
Thu 08:02:19 AM 34.0225 -97.0350 North 438 504 22,700 -1,250 Descending Fort Center
Thu 08:03:19 AM 34.1478 -97.0219 North 422 486 21,200 -1,650 Descending Fort Center
Thu 08:04:19 AM 34.2583 -97.0089 North 403 464 19,400 -1,850 Descending Fort Center
Thu 08:05:19 AM 34.3647 -96.9958 North 393 452 17,500 -1,900 Descending Fort Center
Thu 08:06:19 AM 34.4606 -97.0106 353° North 354 407 15,600 -1,450 Descending Fort Center
Thu 08:07:19 AM 34.5400 -97.0606 333° Northwest 323 372 14,600 -1,000 Descending Fort Center
Thu 08:08:19 AM 34.6153 -97.1133 330° Northwest 323 372 13,600 -1,019 Descending Fort Center
Thu 08:09:05 AM 34.6739 -97.1483 334° Northwest 308 354 12,800 -1,010 Descending Fort Center
Thu 08:10:00 AM 34.7406 -97.1961 330° Northwest 302 348 11,900 -1,054 Descending Fort Center
Thu 08:10:19 AM 34.7636 -97.2089 336° Northwest 302 348 11,500 -1,000 Descending Fort Center
Thu 08:11:00 AM 34.8094 -97.2442 328° Northwest 282 325 10,900 -1,000 Descending Fort Center
Thu 08:11:19 AM 34.8306 -97.2592 330° Northwest 294 338 10,500 -1,082 Descending Fort Center
Thu 08:12:01 AM 34.8764 -97.2919 330° Northwest 278 320 9,800 -1,000 Descending Fort Center
Thu 08:12:19 AM 34.8972 -97.3047 333° Northwest 282 325 9,500 -1,000 Descending Fort Center
Thu 08:13:01 AM 34.9411 -97.3375 329° Northwest 270 311 8,800 -1,000 Descending Fort Center
Thu 08:13:19 AM 34.9600 -97.3528 326° Northwest 271 312 8,500 -984 Descending Fort Center
Thu 08:14:02 AM 35.0058 -97.3831 332° Northwest 265 305 7,800 -1,000 Descending Fort Center
Thu 08:14:19 AM 35.0225 -97.3958 328° Northwest 271 312 7,500 -1,082 Descending Fort Center
Thu 08:15:03 AM 35.0642 -97.4289 327° Northwest 253 291 6,700 -1,200 Descending Fort Center
Thu 08:15:19 AM 35.0808 -97.4389 334° Northwest 264 304 6,300 -1,300 Descending Fort Center
Thu 08:16:03 AM 35.1225 -97.4694 329° Northwest 236 272 5,400 -1,200 Descending Fort Center
Thu 08:16:19 AM 35.1392 -97.4794 334° Northwest 253 291 5,100 -1,377 Descending Fort Center
Thu 08:17:04 AM 35.1808 -97.5125 327° Northwest 225 259 4,000 -1,100 Descending Fort Center
Thu 08:17:19 AM 35.1872 -97.5153 340° North 241 277 4,000 -448 Level Fort Center
Thu 08:18:11 AM 35.2350 -97.5533 327° Northwest 211 243 3,500 -429 Descending Fort Center
Thu 08:19:11 AM 35.2789 -97.5839 330° Northwest 179 206 3,200 -522 Descending Fort Center
Thu 08:20:06 AM 35.3164 -97.5917 350° North 137 158 2,500 -678 Descending Fort Center
Thu 08:21:06 AM 35.3478 -97.5942 356° North 110 127 1,900 -541 Descending Fort Center
Thu 08:22:19 AM 35.3894 -97.5994 354° North 123 142 1,300 4,105 Descending Fort Center
Thu 08:23:19 AM 35.4206 -97.6047 352° North 123 142 11,000 9,700 Climbing Fort Center

Login

Don't have an account? Register now (free) for customized features, flight alerts, and more!